Time;durP1;ratioP1;P1;durP2;ratioP2;P2;SDS_P1;SDS_P2;PMS_P1;PMS_P2;Temp;Humidity;BMP_temperature;BMP_pressure;BME280_temperature;BME280_humidity;BME280_pressure;Samples;Min_cycle;Max_cycle;Signal;HPM_P1;HPM_P2
2023/06/22 00:00:29;;;;;;;7.97;6.13;;;21.80;99.90;;;;;;6192585;28;20050;-79
2023/06/22 00:03:31;;;;;;;8.82;6.88;;;21.80;99.90;;;;;;6190113;28;20050;-79
2023/06/22 00:06:33;;;;;;;8.98;7.15;;;21.80;99.90;;;;;;6189810;28;20070;-80
2023/06/22 00:09:37;;;;;;;12.70;6.15;;;21.80;99.90;;;;;;6189041;28;20050;-79
2023/06/22 00:12:39;;;;;;;7.32;6.63;;;21.80;99.90;;;;;;6191453;28;20054;-80
2023/06/22 00:15:42;;;;;;;8.85;6.32;;;21.80;99.90;;;;;;6191680;28;20043;-80
2023/06/22 00:18:46;;;;;;;7.65;6.00;;;21.80;99.90;;;;;;6188264;28;20053;-79
2023/06/22 00:21:52;;;;;;;7.38;6.00;;;21.80;99.90;;;;;;6190431;28;20051;-80
2023/06/22 00:24:55;;;;;;;9.18;7.72;;;21.80;99.90;;;;;;6190586;28;20061;-81
2023/06/22 00:27:57;;;;;;;7.03;6.03;;;21.80;99.90;;;;;;6186349;28;20047;-81
2023/06/22 00:31:00;;;;;;;9.88;6.80;;;21.90;99.90;;;;;;6182035;28;20395;-80
2023/06/22 00:34:06;;;;;;;9.23;7.50;;;22.00;99.90;;;;;;6180503;28;20081;-80
2023/06/22 00:37:08;;;;;;;18.77;8.05;;;21.70;99.90;;;;;;6178182;28;20055;-80
2023/06/22 00:40:12;;;;;;;11.55;8.05;;;21.20;99.90;;;;;;6179851;28;20047;-80
2023/06/22 00:43:13;;;;;;;11.35;7.93;;;20.90;99.90;;;;;;6179043;28;20065;-81
2023/06/22 00:46:16;;;;;;;15.82;8.70;;;20.60;99.90;;;;;;6178623;28;20077;-80
2023/06/22 00:49:18;;;;;;;9.98;8.98;;;20.50;99.90;;;;;;6179323;28;20058;-80
2023/06/22 00:52:21;;;;;;;12.98;11.00;;;20.50;99.90;;;;;;6180055;28;20053;-81
2023/06/22 00:55:25;;;;;;;13.40;9.90;;;20.40;99.90;;;;;;6179241;28;20445;-81
2023/06/22 00:58:27;;;;;;;19.17;11.75;;;20.40;99.90;;;;;;6179706;28;20086;-79
2023/06/22 01:01:29;;;;;;;15.02;11.43;;;20.30;99.90;;;;;;6178300;28;20072;-81
2023/06/22 01:04:36;;;;;;;16.92;13.02;;;20.30;99.90;;;;;;6175050;28;20498;-79
2023/06/22 01:07:48;;;;;;;13.33;11.30;;;20.30;99.90;;;;;;6172576;28;20054;-80
2023/06/22 01:10:54;;;;;;;22.45;12.68;;;20.30;99.90;;;;;;6172446;28;20287;-80
2023/06/22 01:14:06;;;;;;;22.05;14.93;;;20.20;99.90;;;;;;6172089;28;20374;-80
2023/06/22 01:17:09;;;;;;;15.93;11.38;;;20.20;99.90;;;;;;6171971;28;20482;-80
2023/06/22 01:20:13;;;;;;;17.67;12.85;;;20.10;99.90;;;;;;6173134;28;20051;-80
2023/06/22 01:23:29;;;;;;;18.90;13.70;;;20.00;99.90;;;;;;6172932;28;20046;-80
2023/06/22 01:26:41;;;;;;;16.75;12.65;;;20.00;99.90;;;;;;6173965;28;20047;-77
2023/06/22 01:29:45;;;;;;;17.10;12.57;;;20.00;99.90;;;;;;6175132;28;20054;-78
2023/06/22 01:32:48;;;;;;;17.92;13.35;;;19.90;99.90;;;;;;6177174;28;20054;-79
2023/06/22 01:35:49;;;;;;;28.38;14.07;;;20.00;99.90;;;;;;6175483;28;20418;-79
2023/06/22 01:38:52;;;;;;;18.52;14.27;;;19.90;99.90;;;;;;6176495;28;20046;-78
2023/06/22 01:41:55;;;;;;;21.58;13.77;;;19.90;99.90;;;;;;6175210;28;20043;-80
2023/06/22 01:44:59;;;;;;;21.05;15.40;;;19.80;99.90;;;;;;6174012;28;20051;-81
2023/06/22 01:48:01;;;;;;;24.73;16.55;;;19.80;99.90;;;;;;6172793;28;20053;-80
2023/06/22 01:51:03;;;;;;;21.02;14.30;;;19.70;99.90;;;;;;6173174;28;20054;-80
2023/06/22 01:54:07;;;;;;;21.75;14.40;;;19.70;99.90;;;;;;6173127;28;20481;-80
2023/06/22 01:57:10;;;;;;;24.48;15.07;;;19.70;99.90;;;;;;6175256;28;20066;-79
2023/06/22 02:00:19;;;;;;;21.65;13.93;;;19.60;99.90;;;;;;6176699;28;20058;-80
2023/06/22 02:03:23;;;;;;;19.58;15.55;;;19.60;99.90;;;;;;6175673;28;20042;-79
2023/06/22 02:06:36;;;;;;;19.50;16.40;;;19.60;99.90;;;;;;6176274;28;20133;-79
2023/06/22 02:09:42;;;;;;;19.95;15.38;;;19.60;99.90;;;;;;6171848;28;20042;-80
2023/06/22 02:12:46;;;;;;;21.15;16.25;;;19.50;99.90;;;;;;6178771;28;20146;-80
2023/06/22 02:15:49;;;;;;;22.80;14.50;;;19.40;99.90;;;;;;6183773;28;20049;-82
2023/06/22 02:18:52;;;;;;;28.35;15.98;;;19.50;99.90;;;;;;6183453;28;20054;-81
2023/06/22 02:21:54;;;;;;;23.88;16.10;;;19.50;99.90;;;;;;6184757;28;20049;-81
2023/06/22 02:24:55;;;;;;;22.90;15.88;;;19.40;99.90;;;;;;6186448;28;20051;-82
2023/06/22 02:27:57;;;;;;;23.42;15.93;;;19.50;99.90;;;;;;6183936;28;20062;-83
2023/06/22 02:31:00;;;;;;;20.90;15.75;;;19.50;99.90;;;;;;6183913;28;20054;-81
2023/06/22 02:34:02;;;;;;;22.50;15.85;;;19.50;99.90;;;;;;6186186;28;20164;-81
2023/06/22 02:37:04;;;;;;;23.35;16.50;;;19.40;99.90;;;;;;6185640;28;20046;-83
2023/06/22 02:40:08;;;;;;;20.00;15.50;;;19.40;99.90;;;;;;6184099;28;20050;-83
2023/06/22 02:43:10;;;;;;;0.13;0.13;;;19.40;99.90;;;;;;6185204;28;20057;-83
2023/06/22 02:46:13;;;;;;;0.03;0.03;;;19.30;99.90;;;;;;6185598;28;20074;-80
2023/06/22 02:49:15;;;;;;;0.10;0.10;;;19.40;99.90;;;;;;6184266;28;20046;-82
2023/06/22 02:52:17;;;;;;;0.05;0.05;;;19.40;99.90;;;;;;6184374;28;20061;-81
2023/06/22 02:55:18;;;;;;;0.10;0.10;;;19.40;99.90;;;;;;6183710;28;20054;-82
2023/06/22 02:58:21;;;;;;;0.30;0.30;;;19.40;99.90;;;;;;6184040;28;20074;-81
2023/06/22 03:01:24;;;;;;;0.05;0.05;;;19.40;99.90;;;;;;6184077;28;20054;-81
2023/06/22 03:04:26;;;;;;;0.20;0.20;;;19.30;99.90;;;;;;6182583;28;20454;-82
2023/06/22 03:07:30;;;;;;;0.10;0.10;;;19.30;99.90;;;;;;6182684;28;20070;-83
2023/06/22 03:10:31;;;;;;;0.10;0.10;;;19.40;99.90;;;;;;6183354;28;20071;-81
2023/06/22 03:13:33;;;;;;;0.45;0.45;;;19.30;99.90;;;;;;6183898;28;20053;-82
2023/06/22 03:16:36;;;;;;;0.20;0.20;;;19.20;99.90;;;;;;6184577;28;20054;-81
2023/06/22 03:19:38;;;;;;;0.10;0.10;;;19.20;99.90;;;;;;6183692;28;20098;-82
2023/06/22 03:22:41;;;;;;;0.10;0.10;;;19.20;99.90;;;;;;6183157;28;20146;-81
2023/06/22 03:25:44;;;;;;;0.10;0.10;;;19.20;99.90;;;;;;6183540;28;20050;-81
2023/06/22 03:28:46;;;;;;;0.10;0.10;;;19.20;99.90;;;;;;6183119;28;20051;-82
2023/06/22 03:31:49;;;;;;;0.45;0.45;;;19.20;99.90;;;;;;6183128;28;20054;-80
2023/06/22 03:34:50;;;;;;;0.00;0.00;;;19.20;99.90;;;;;;6182463;28;20055;-80
2023/06/22 03:37:52;;;;;;;0.10;0.10;;;19.20;99.90;;;;;;6183247;28;20042;-80
2023/06/22 03:40:54;;;;;;;0.20;0.20;;;19.20;99.90;;;;;;6181610;28;20047;-78
2023/06/22 03:43:55;;;;;;;0.17;0.17;;;19.30;99.90;;;;;;6182900;28;20109;-78
2023/06/22 03:46:58;;;;;;;0.10;0.10;;;19.30;99.90;;;;;;6181944;28;20051;-80
2023/06/22 03:50:00;;;;;;;0.10;0.10;;;19.20;99.90;;;;;;6180956;28;20390;-79
2023/06/22 03:53:02;;;;;;;0.08;0.08;;;19.20;99.90;;;;;;6181451;28;20054;-79
2023/06/22 03:56:04;;;;;;;0.25;0.25;;;19.30;99.90;;;;;;6180146;28;20043;-79
2023/06/22 03:59:06;;;;;;;0.10;0.10;;;19.30;99.90;;;;;;6179276;28;20054;-79
2023/06/22 04:02:09;;;;;;;0.10;0.10;;;19.30;99.90;;;;;;6180534;28;20062;-80
2023/06/22 04:05:10;;;;;;;12.95;5.65;;;19.40;99.90;;;;;;6181449;28;20070;-80
2023/06/22 04:08:13;;;;;;;13.13;10.45;;;19.40;99.90;;;;;;6174332;28;20051;-78
2023/06/22 04:11:14;;;;;;;13.60;9.88;;;19.50;99.90;;;;;;6180697;28;20047;-80
2023/06/22 04:14:16;;;;;;;15.30;11.90;;;19.50;99.90;;;;;;6180545;28;20062;-80
2023/06/22 04:17:19;;;;;;;22.88;14.30;;;19.70;99.90;;;;;;6180191;28;20047;-80
2023/06/22 04:20:21;;;;;;;19.95;14.32;;;19.80;99.90;;;;;;6180477;28;20051;-79
2023/06/22 04:23:22;;;;;;;17.60;13.38;;;20.00;99.90;;;;;;6178779;28;20050;-79
2023/06/22 04:26:24;;;;;;;13.43;12.02;;;20.30;99.90;;;;;;6179179;28;20057;-79
2023/06/22 04:29:28;;;;;;;16.83;12.55;;;20.50;99.90;;;;;;6179253;28;20057;-78
2023/06/22 04:32:31;;;;;;;14.50;11.52;;;20.70;99.90;;;;;;6183247;28;20055;-79
2023/06/22 04:35:33;;;;;;;14.25;10.68;;;20.80;99.90;;;;;;6179041;28;20038;-80
2023/06/22 04:38:34;;;;;;;11.55;10.38;;;21.10;99.90;;;;;;6179179;28;20047;-79
2023/06/22 04:41:42;;;;;;;13.65;9.95;;;21.30;99.90;;;;;;6178844;28;20047;-79
2023/06/22 04:44:44;;;;;;;;;;;21.40;99.90;;;;;;6180272;28;20090;-81
2023/06/22 04:47:47;;;;;;;12.20;10.13;;;21.50;99.90;;;;;;6178609;28;19922;-80
2023/06/22 04:50:49;;;;;;;17.15;11.35;;;21.50;99.90;;;;;;6178797;28;20057;-79
2023/06/22 04:53:50;;;;;;;10.43;9.48;;;21.60;99.90;;;;;;6178052;28;20054;-80
2023/06/22 04:56:56;;;;;;;9.48;8.55;;;21.80;99.90;;;;;;6178776;28;20486;-78
2023/06/22 05:00:10;;;;;;;17.23;10.07;;;22.20;99.90;;;;;;6177516;28;20058;-80
2023/06/22 05:03:18;;;;;;;15.63;10.48;;;22.60;99.90;;;;;;6177346;28;20047;-81
2023/06/22 05:06:20;;;;;;;10.93;9.50;;;23.00;99.90;;;;;;6178005;28;20073;-81
2023/06/22 05:09:22;;;;;;;10.02;8.48;;;23.60;99.90;;;;;;6177164;28;20141;-81
2023/06/22 05:12:23;;;;;;;10.85;8.73;;;24.10;99.90;;;;;;6178283;28;20062;-81
2023/06/22 05:15:30;;;;;;;11.82;9.05;;;24.40;99.90;;;;;;6178622;28;20043;-81
2023/06/22 05:18:34;;;;;;;10.30;8.75;;;24.50;99.90;;;;;;6178179;28;20046;-80
2023/06/22 05:21:36;;;;;;;15.15;8.68;;;24.50;99.90;;;;;;6179129;28;20047;-80
2023/06/22 05:24:37;;;;;;;9.85;7.93;;;24.70;99.90;;;;;;6178131;28;20522;-80
2023/06/22 05:27:40;;;;;;;9.15;8.23;;;25.20;99.90;;;;;;6176985;28;20050;-79
2023/06/22 05:30:41;;;;;;;13.63;7.15;;;25.70;99.90;;;;;;6177560;28;20049;-80
2023/06/22 05:33:45;;;;;;;13.05;9.80;;;26.10;99.90;;;;;;6177913;28;20051;-80
2023/06/22 05:36:46;;;;;;;9.80;7.88;;;26.40;99.90;;;;;;6178879;28;20051;-79
2023/06/22 05:39:48;;;;;;;10.73;8.48;;;26.80;99.90;;;;;;6178181;28;20051;-80
2023/06/22 05:42:50;;;;;;;7.95;7.15;;;27.00;99.90;;;;;;6189546;28;20046;-78
2023/06/22 05:45:51;;;;;;;8.65;7.30;;;27.30;99.90;;;;;;6185776;28;20517;-80
2023/06/22 05:48:54;;;;;;;8.82;7.80;;;27.40;99.90;;;;;;6181234;28;20058;-79
2023/06/22 05:51:57;;;;;;;8.57;7.68;;;27.60;99.90;;;;;;6184908;28;20049;-80
2023/06/22 05:54:58;;;;;;;10.23;7.47;;;28.00;99.90;;;;;;6185959;28;20047;-81
2023/06/22 05:58:00;;;;;;;7.00;6.20;;;28.00;99.90;;;;;;6184831;28;20043;-80
2023/06/22 06:01:02;;;;;;;11.40;6.57;;;27.90;99.90;;;;;;6185970;28;20054;-79
2023/06/22 06:04:07;;;;;;;8.90;7.88;;;28.20;99.90;;;;;;6184962;28;20123;-81
2023/06/22 06:07:09;;;;;;;11.32;7.55;;;28.20;99.90;;;;;;6185684;28;20376;-81
2023/06/22 06:10:11;;;;;;;7.00;6.30;;;28.20;99.90;;;;;;6185498;28;20427;-81
2023/06/22 06:13:12;;;;;;;14.65;6.28;;;28.20;99.90;;;;;;6185572;28;20177;-81
2023/06/22 06:16:15;;;;;;;11.80;7.53;;;28.00;99.90;;;;;;6185770;28;20058;-80
2023/06/22 06:19:18;;;;;;;12.63;8.13;;;27.90;99.90;;;;;;6185712;28;20102;-81
2023/06/22 06:22:20;;;;;;;9.52;6.82;;;27.90;99.90;;;;;;6184662;28;20424;-81
2023/06/22 06:25:22;;;;;;;10.57;7.28;;;28.00;99.90;;;;;;6185244;28;20051;-81
2023/06/22 06:28:26;;;;;;;7.85;7.13;;;28.10;99.90;;;;;;6184993;28;20493;-80
2023/06/22 06:31:28;;;;;;;8.52;6.45;;;28.40;99.90;;;;;;6184935;28;20047;-81
2023/06/22 06:34:31;;;;;;;12.88;7.40;;;28.70;99.90;;;;;;6184637;28;20117;-81
2023/06/22 06:37:34;;;;;;;11.07;7.30;;;29.20;99.90;;;;;;6183538;28;20695;-82
2023/06/22 06:40:35;;;;;;;9.80;5.68;;;30.00;99.90;;;;;;6184573;28;20474;-81
2023/06/22 06:43:37;;;;;;;8.30;6.55;;;30.10;99.90;;;;;;6183890;28;20054;-82
2023/06/22 06:46:39;;;;;;;9.20;6.50;;;30.50;99.90;;;;;;6183462;28;20054;-81
2023/06/22 06:49:42;;;;;;;10.10;7.68;;;30.60;99.90;;;;;;6184000;28;20050;-81
2023/06/22 06:52:44;;;;;;;11.77;6.78;;;30.80;99.90;;;;;;6185130;28;20070;-81
2023/06/22 06:55:46;;;;;;;11.10;6.50;;;30.90;99.90;;;;;;6184827;28;20039;-80
2023/06/22 06:58:48;;;;;;;12.93;6.25;;;31.00;99.90;;;;;;6165587;28;20128;-82
2023/06/22 07:01:50;;;;;;;19.15;6.68;;;31.20;99.90;;;;;;6186537;28;20050;-80
2023/06/22 07:04:53;;;;;;;9.27;6.05;;;31.40;99.90;;;;;;6198925;28;20528;-81
2023/06/22 07:07:54;;;;;;;10.40;6.63;;;31.60;99.90;;;;;;6196172;28;20042;-79
2023/06/22 07:10:56;;;;;;;7.05;5.82;;;32.10;99.90;;;;;;6182608;28;20043;-78
2023/06/22 07:14:00;;;;;;;7.72;6.13;;;31.50;99.90;;;;;;6194433;28;20054;-79
2023/06/22 07:17:02;;;;;;;7.07;5.55;;;30.80;99.90;;;;;;6214049;28;20133;-79
2023/06/22 07:20:09;;;;;;;7.40;6.30;;;30.20;99.90;;;;;;6199246;28;20058;-78
2023/06/22 07:23:11;;;;;;;8.60;6.32;;;29.90;99.90;;;;;;6196681;28;20054;-78
2023/06/22 07:26:13;;;;;;;10.63;6.82;;;29.30;99.90;;;;;;6190061;28;20046;-78
2023/06/22 07:29:15;;;;;;;8.43;6.07;;;28.80;99.90;;;;;;6191621;28;20058;-78
2023/06/22 07:32:17;;;;;;;7.32;6.53;;;28.40;99.90;;;;;;6194138;28;20180;-79
2023/06/22 07:35:20;;;;;;;6.85;6.25;;;28.00;99.90;;;;;;6194095;28;20517;-77
2023/06/22 07:38:22;;;;;;;8.10;6.68;;;27.70;99.90;;;;;;6189696;28;20038;-78
2023/06/22 07:41:24;;;;;;;12.07;7.47;;;27.60;99.90;;;;;;6191086;28;20063;-78
2023/06/22 07:44:26;;;;;;;10.07;6.63;;;27.50;99.90;;;;;;6194205;28;20710;-79
2023/06/22 07:47:28;;;;;;;11.32;6.35;;;27.40;99.90;;;;;;6201770;28;20057;-77
2023/06/22 07:50:31;;;;;;;12.90;7.40;;;27.40;99.90;;;;;;6203953;28;20539;-81
2023/06/22 07:53:32;;;;;;;10.98;7.20;;;27.30;99.90;;;;;;6203052;28;20125;-78
2023/06/22 07:56:34;;;;;;;12.77;6.68;;;27.30;99.90;;;;;;6200427;28;20434;-77
2023/06/22 07:59:36;;;;;;;6.80;5.78;;;27.50;99.90;;;;;;6203323;28;20050;-80
2023/06/22 08:02:38;;;;;;;7.88;5.80;;;27.60;99.90;;;;;;6202435;28;20133;-78
2023/06/22 08:05:41;;;;;;;11.57;7.10;;;27.70;99.90;;;;;;6204264;28;20077;-79
2023/06/22 08:08:43;;;;;;;12.05;7.10;;;27.80;99.90;;;;;;6202763;28;20050;-81
2023/06/22 08:11:44;;;;;;;7.25;5.95;;;28.00;99.90;;;;;;6201977;28;20663;-80
2023/06/22 08:14:46;;;;;;;11.48;6.68;;;28.30;99.90;;;;;;6192285;28;20058;-78
2023/06/22 08:17:48;;;;;;;14.38;6.78;;;28.50;99.90;;;;;;6189428;28;20187;-77
2023/06/22 08:20:51;;;;;;;9.85;6.28;;;28.50;99.90;;;;;;6188960;28;20054;-80
2023/06/22 08:23:53;;;;;;;6.45;5.80;;;28.60;99.90;;;;;;6186951;28;20049;-80
2023/06/22 08:26:55;;;;;;;8.15;6.63;;;28.90;99.90;;;;;;6186581;28;20685;-80
2023/06/22 08:29:58;;;;;;;10.98;6.80;;;28.80;99.90;;;;;;6185766;28;20435;-80
2023/06/22 08:33:00;;;;;;;11.48;6.07;;;28.70;99.90;;;;;;6187665;28;20489;-77
2023/06/22 08:36:05;;;;;;;9.88;6.05;;;28.90;99.90;;;;;;6187898;28;20529;-78
2023/06/22 08:39:08;;;;;;;9.80;7.20;;;29.20;99.90;;;;;;6189146;28;20065;-80
2023/06/22 08:42:09;;;;;;;8.02;5.20;;;29.20;99.90;;;;;;6186058;28;20070;-80
2023/06/22 08:45:12;;;;;;;9.25;5.25;;;29.30;99.90;;;;;;6184840;28;20050;-80
2023/06/22 08:48:13;;;;;;;8.80;6.53;;;29.30;99.90;;;;;;6187761;28;20096;-79
2023/06/22 08:51:16;;;;;;;11.18;7.22;;;29.20;99.90;;;;;;6186762;28;20051;-77
2023/06/22 08:54:18;;;;;;;8.50;6.82;;;29.30;99.90;;;;;;6182586;28;20049;-77
2023/06/22 08:57:20;;;;;;;7.95;5.47;;;29.30;99.90;;;;;;6187089;28;20046;-79
2023/06/22 09:00:22;;;;;;;13.88;6.57;;;29.90;99.90;;;;;;6199856;28;20420;-79
2023/06/22 09:03:26;;;;;;;11.30;6.28;;;31.00;99.90;;;;;;6196608;28;20508;-80
2023/06/22 09:06:31;;;;;;;8.27;5.90;;;31.80;99.90;;;;;;6199043;28;20489;-80
2023/06/22 09:09:32;;;;;;;11.40;5.57;;;32.60;99.90;;;;;;6199011;28;20819;-79
2023/06/22 09:12:36;;;;;;;9.48;5.53;;;33.50;99.90;;;;;;6201818;28;20054;-80
2023/06/22 09:15:38;;;;;;;7.28;5.97;;;33.90;99.90;;;;;;6202104;28;20078;-80
2023/06/22 09:18:40;;;;;;;8.73;5.78;;;34.10;99.90;;;;;;6201313;28;20402;-80
2023/06/22 09:21:43;;;;;;;6.95;6.15;;;34.40;99.90;;;;;;6201282;28;20524;-80
2023/06/22 09:24:45;;;;;;;8.70;5.18;;;35.00;98.70;;;;;;6201327;28;20133;-80
2023/06/22 09:27:46;;;;;;;13.30;5.60;;;35.60;97.40;;;;;;6201947;28;20208;-81
2023/06/22 09:30:48;;;;;;;12.82;6.43;;;35.90;96.20;;;;;;6201644;28;20046;-80
2023/06/22 09:33:50;;;;;;;6.65;5.28;;;36.10;95.00;;;;;;6202202;28;20057;-81
2023/06/22 09:36:54;;;;;;;7.70;5.13;;;36.40;93.90;;;;;;6202281;28;20057;-81
2023/06/22 09:39:56;;;;;;;12.63;6.55;;;36.40;92.40;;;;;;6201552;28;20052;-81
2023/06/22 09:42:58;;;;;;;13.73;5.43;;;36.30;91.70;;;;;;6201254;28;20061;-81
2023/06/22 09:45:59;;;;;;;10.77;5.35;;;36.10;90.20;;;;;;6200783;28;20053;-81
2023/06/22 09:49:01;;;;;;;9.18;6.25;;;35.60;88.00;;;;;;6201212;28;20062;-81
2023/06/22 09:52:05;;;;;;;9.15;6.40;;;35.20;86.80;;;;;;6200595;28;20054;-80
2023/06/22 09:55:07;;;;;;;7.45;5.43;;;34.70;82.30;;;;;;6200603;28;20054;-81
2023/06/22 09:58:10;;;;;;;11.15;6.50;;;34.10;82.00;;;;;;6200854;28;20056;-79
2023/06/22 10:01:11;;;;;;;9.93;5.80;;;33.80;81.40;;;;;;6202487;28;20100;-80
2023/06/22 10:04:13;;;;;;;6.28;5.63;;;33.40;80.40;;;;;;6200981;28;20057;-80
2023/06/22 10:07:16;;;;;;;11.07;6.05;;;33.10;79.00;;;;;;6200509;28;20042;-80
2023/06/22 10:10:18;;;;;;;11.23;6.85;;;32.70;80.30;;;;;;6200660;28;20053;-80
2023/06/22 10:13:20;;;;;;;9.25;6.13;;;32.70;80.60;;;;;;6201146;28;20069;-79
2023/06/22 10:16:22;;;;;;;15.40;5.88;;;32.60;81.20;;;;;;6201134;28;20050;-80
2023/06/22 10:19:23;;;;;;;8.63;5.72;;;32.70;81.30;;;;;;6200510;28;20454;-80
2023/06/22 10:22:26;;;;;;;9.13;5.97;;;32.90;80.20;;;;;;6200454;28;20050;-80
2023/06/22 10:25:28;;;;;;;9.50;6.70;;;32.90;79.00;;;;;;6200180;28;20049;-81
2023/06/22 10:28:30;;;;;;;8.45;6.55;;;32.90;78.60;;;;;;6200407;28;20112;-80
2023/06/22 10:31:32;;;;;;;9.20;6.10;;;32.70;77.60;;;;;;6200511;28;20466;-80
2023/06/22 10:34:33;;;;;;;14.27;6.20;;;32.60;77.70;;;;;;6202337;28;20043;-80
2023/06/22 10:37:37;;;;;;;9.65;6.22;;;32.50;77.00;;;;;;6203594;28;20042;-79
2023/06/22 10:40:39;;;;;;;9.75;5.97;;;32.60;77.60;;;;;;6204756;28;20046;-80
2023/06/22 10:43:41;;;;;;;6.40;5.47;;;32.60;77.00;;;;;;6204153;28;20057;-81
2023/06/22 10:46:42;;;;;;;6.55;5.90;;;32.50;77.20;;;;;;6205361;28;20153;-81
2023/06/22 10:49:44;;;;;;;16.08;8.57;;;32.50;76.90;;;;;;6204138;28;20417;-80
2023/06/22 10:52:47;;;;;;;14.25;6.72;;;32.40;76.60;;;;;;6204675;28;20505;-80
2023/06/22 10:55:49;;;;;;;7.03;5.50;;;32.20;76.60;;;;;;6203633;28;20104;-80
2023/06/22 10:58:51;;;;;;;11.40;6.13;;;32.20;76.70;;;;;;6202738;28;20065;-81
2023/06/22 11:01:52;;;;;;;11.55;6.25;;;32.40;76.50;;;;;;6203615;28;20054;-81
2023/06/22 11:04:54;;;;;;;12.48;6.60;;;32.80;75.50;;;;;;6202991;28;20050;-79
2023/06/22 11:07:57;;;;;;;7.93;6.03;;;32.90;75.10;;;;;;6203023;28;20038;-79
2023/06/22 11:10:59;;;;;;;10.60;6.40;;;33.20;74.80;;;;;;6203479;28;20058;-79
2023/06/22 11:14:00;;;;;;;9.98;5.30;;;33.70;73.30;;;;;;6201970;28;20050;-80
2023/06/22 11:17:02;;;;;;;8.88;5.28;;;33.70;73.20;;;;;;6202592;28;20141;-80
2023/06/22 11:20:10;;;;;;;14.45;6.55;;;34.00;73.00;;;;;;6201991;28;20042;-80
2023/06/22 11:23:13;;;;;;;8.30;6.18;;;34.20;72.40;;;;;;6202573;28;20046;-80
2023/06/22 11:26:15;;;;;;;8.20;6.22;;;34.40;72.10;;;;;;6201949;28;20053;-81
2023/06/22 11:29:16;;;;;;;7.60;5.95;;;34.60;70.50;;;;;;6201615;28;20414;-80
2023/06/22 11:32:18;;;;;;;10.30;6.68;;;34.40;70.80;;;;;;6202210;28;20406;-80
2023/06/22 11:35:20;;;;;;;13.70;6.82;;;34.50;70.20;;;;;;6201857;28;20043;-81
2023/06/22 11:38:23;;;;;;;11.52;6.40;;;34.30;69.70;;;;;;6200605;28;20050;-80
2023/06/22 11:41:24;;;;;;;14.32;6.47;;;34.20;70.60;;;;;;6199575;28;20054;-78
2023/06/22 11:44:26;;;;;;;9.02;5.95;;;34.00;70.20;;;;;;6199809;28;20054;-80
2023/06/22 11:47:28;;;;;;;12.25;6.18;;;33.80;70.30;;;;;;6199336;28;20043;-79
2023/06/22 11:50:34;;;;;;;8.95;7.15;;;33.80;69.90;;;;;;6188220;28;20084;-80
2023/06/22 11:53:37;;;;;;;12.38;6.40;;;33.70;70.20;;;;;;6193066;28;20042;-80
2023/06/22 11:56:39;;;;;;;9.80;6.05;;;33.90;70.40;;;;;;6188752;28;20370;-79
2023/06/22 11:59:40;;;;;;;9.55;6.35;;;34.20;70.40;;;;;;6187977;28;20472;-79
2023/06/22 12:02:42;;;;;;;10.48;5.97;;;34.50;69.40;;;;;;6190581;28;20061;-79
2023/06/22 12:05:44;;;;;;;8.85;6.32;;;34.30;68.50;;;;;;6188936;28;20055;-80
2023/06/22 12:08:47;;;;;;;15.30;7.43;;;33.90;69.20;;;;;;6188596;28;20043;-80
2023/06/22 12:11:48;;;;;;;10.30;5.88;;;33.70;69.60;;;;;;6188792;28;20054;-82
2023/06/22 12:14:50;;;;;;;10.20;7.03;;;33.60;69.90;;;;;;6188430;28;20319;-79
2023/06/22 12:17:52;;;;;;;9.38;6.20;;;33.80;70.00;;;;;;6186613;28;20043;-79
2023/06/22 12:20:53;;;;;;;11.73;6.00;;;34.20;69.90;;;;;;6189034;28;20054;-80
2023/06/22 12:23:57;;;;;;;9.98;6.32;;;34.50;69.60;;;;;;6189170;28;20062;-79
2023/06/22 12:26:58;;;;;;;13.93;6.82;;;34.80;68.60;;;;;;6190254;28;20123;-79
2023/06/22 12:30:00;;;;;;;10.65;6.78;;;34.80;67.90;;;;;;6187677;28;20359;-79
2023/06/22 12:33:02;;;;;;;13.18;6.65;;;34.60;67.50;;;;;;6195733;28;20500;-79
2023/06/22 12:36:04;;;;;;;13.50;9.02;;;34.30;68.10;;;;;;6188890;28;20065;-79
2023/06/22 12:39:07;;;;;;;8.15;7.30;;;33.90;68.20;;;;;;6193091;28;20072;-77
2023/06/22 12:42:11;;;;;;;10.77;7.18;;;33.50;69.30;;;;;;6192827;28;20058;-77
2023/06/22 12:45:13;;;;;;;13.48;7.05;;;33.30;70.00;;;;;;6196481;28;20435;-77
2023/06/22 12:48:14;;;;;;;12.82;6.63;;;33.30;70.40;;;;;;6197631;28;20042;-77
2023/06/22 12:51:21;;;;;;;8.40;7.10;;;33.40;70.70;;;;;;6199026;28;20042;-78
2023/06/22 12:54:24;;;;;;;;;;;33.40;70.50;;;;;;6196775;28;20054;-78
2023/06/22 12:57:26;;;;;;;8.10;7.22;;;33.30;70.50;;;;;;6194922;28;19937;-77
2023/06/22 13:00:28;;;;;;;8.30;5.47;;;33.30;71.10;;;;;;6196867;28;20057;-79
2023/06/22 13:03:29;;;;;;;7.97;6.72;;;33.30;71.60;;;;;;6191301;28;20047;-77
2023/06/22 13:06:31;;;;;;;13.60;6.88;;;33.30;72.20;;;;;;6191352;28;20038;-78
2023/06/22 13:09:34;;;;;;;11.02;6.20;;;33.30;72.50;;;;;;6196555;28;20042;-77
2023/06/22 13:12:36;;;;;;;10.43;6.13;;;33.40;72.50;;;;;;6192463;28;20046;-78
2023/06/22 13:15:38;;;;;;;13.55;7.18;;;33.70;72.30;;;;;;6202005;28;20069;-78
2023/06/22 13:18:39;;;;;;;10.32;6.22;;;34.20;71.50;;;;;;6205754;28;20057;-79
2023/06/22 13:21:41;;;;;;;11.35;6.38;;;34.70;70.60;;;;;;6203106;28;20137;-77
2023/06/22 13:24:44;;;;;;;15.55;7.43;;;35.00;69.60;;;;;;6201843;28;20488;-77
2023/06/22 13:27:46;;;;;;;12.15;7.57;;;34.90;68.70;;;;;;6200048;28;20034;-76
2023/06/22 13:30:48;;;;;;;13.65;7.35;;;34.80;68.90;;;;;;6194268;28;20069;-77
2023/06/22 13:33:52;;;;;;;10.77;7.00;;;34.80;68.60;;;;;;6196986;28;20046;-78
2023/06/22 13:36:54;;;;;;;10.88;6.72;;;34.90;68.30;;;;;;6201592;28;20051;-78
2023/06/22 13:39:59;;;;;;;11.73;6.82;;;35.10;67.70;;;;;;6195230;28;20614;-77
2023/06/22 13:43:01;;;;;;;17.95;7.75;;;35.20;66.90;;;;;;6196602;28;21536;-78
2023/06/22 13:46:02;;;;;;;11.77;6.80;;;35.10;66.40;;;;;;6187291;28;20062;-79
2023/06/22 13:49:04;;;;;;;13.63;6.38;;;35.00;66.50;;;;;;6184967;28;20050;-78
2023/06/22 13:52:10;;;;;;;15.90;7.45;;;35.00;66.30;;;;;;6187662;28;20061;-78
2023/06/22 13:55:14;;;;;;;8.98;6.40;;;35.20;65.50;;;;;;6187426;28;20062;-78
2023/06/22 13:58:15;;;;;;;11.05;6.57;;;35.20;64.90;;;;;;6189171;28;20046;-79
2023/06/22 14:01:17;;;;;;;12.93;6.82;;;34.90;64.80;;;;;;6191780;28;20042;-79
2023/06/22 14:04:19;;;;;;;12.05;7.35;;;34.30;65.30;;;;;;6187069;28;20101;-77
2023/06/22 14:07:21;;;;;;;13.15;7.35;;;33.90;65.80;;;;;;6186509;28;20501;-78
2023/06/22 14:10:24;;;;;;;11.88;8.55;;;33.50;66.70;;;;;;6196581;28;20053;-78
2023/06/22 14:13:25;;;;;;;9.00;6.60;;;33.20;67.50;;;;;;6193761;28;20942;-77
2023/06/22 14:16:28;;;;;;;16.60;7.40;;;32.60;68.50;;;;;;6191316;28;20054;-79
2023/06/22 14:19:29;;;;;;;9.90;7.63;;;32.20;69.60;;;;;;6192268;28;20646;-79
2023/06/22 14:22:31;;;;;;;11.38;6.97;;;31.90;70.70;;;;;;6190337;28;20050;-79
2023/06/22 14:25:34;;;;;;;10.63;7.43;;;31.60;71.70;;;;;;6194152;28;20435;-76
2023/06/22 14:28:38;;;;;;;9.40;7.15;;;31.60;72.30;;;;;;6193362;28;20055;-77
2023/06/22 14:31:40;;;;;;;13.02;7.88;;;31.60;72.70;;;;;;6190991;28;20077;-78
2023/06/22 14:34:41;;;;;;;14.93;7.20;;;31.70;72.80;;;;;;6196765;28;20517;-80
2023/06/22 14:37:43;;;;;;;18.15;8.80;;;31.80;72.30;;;;;;6194125;28;20102;-79
2023/06/22 14:40:46;;;;;;;12.05;7.28;;;31.80;72.10;;;;;;6202415;28;20057;-81
2023/06/22 14:43:49;;;;;;;20.92;7.00;;;31.90;71.20;;;;;;6189738;28;20421;-81
2023/06/22 14:46:50;;;;;;;10.00;6.28;;;31.90;71.00;;;;;;6193215;28;20042;-81
2023/06/22 14:49:52;;;;;;;14.52;6.88;;;32.20;71.10;;;;;;6193274;28;20038;-79
2023/06/22 14:52:54;;;;;;;19.10;7.78;;;32.80;70.70;;;;;;6195560;28;20056;-79
2023/06/22 14:55:59;;;;;;;15.40;6.93;;;33.30;69.80;;;;;;6199738;28;20073;-79
2023/06/22 14:59:01;;;;;;;12.52;8.25;;;33.70;68.50;;;;;;6207483;28;20106;-79
2023/06/22 15:02:04;;;;;;;14.18;8.40;;;34.20;68.10;;;;;;6204891;28;20062;-79
2023/06/22 15:05:06;;;;;;;15.30;8.68;;;34.40;68.70;;;;;;6197884;28;20057;-78
2023/06/22 15:08:08;;;;;;;13.13;7.53;;;34.70;68.50;;;;;;6205926;28;20046;-79
2023/06/22 15:11:11;;;;;;;13.68;6.93;;;34.90;68.40;;;;;;6198042;28;20046;-78
2023/06/22 15:14:14;;;;;;;15.95;6.97;;;35.10;67.60;;;;;;6203168;28;20062;-80
2023/06/22 15:17:16;;;;;;;16.60;7.32;;;35.20;67.00;;;;;;6204986;28;20064;-80
2023/06/22 15:20:18;;;;;;;15.65;7.85;;;35.20;66.50;;;;;;6199886;28;20422;-79
2023/06/22 15:23:20;;;;;;;9.38;6.38;;;35.50;66.10;;;;;;6201795;28;20398;-80
2023/06/22 15:26:23;;;;;;;23.77;6.75;;;35.40;64.10;;;;;;6196904;28;20042;-79
2023/06/22 15:29:25;;;;;;;14.75;5.85;;;35.30;62.40;;;;;;6189287;28;20065;-80
2023/06/22 15:32:27;;;;;;;10.43;5.88;;;35.20;61.80;;;;;;6191931;28;20062;-80
2023/06/22 15:35:29;;;;;;;10.80;5.60;;;35.20;61.80;;;;;;6196931;28;20046;-81
2023/06/22 15:38:31;;;;;;;11.07;6.28;;;35.10;62.20;;;;;;6193681;28;20397;-80
2023/06/22 15:41:34;;;;;;;9.38;5.68;;;35.30;61.80;;;;;;6199937;28;20058;-79